Time;durP1;ratioP1;P1;durP2;ratioP2;P2;SDS_P1;SDS_P2;PMS_P1;PMS_P2;Temp;Humidity;BMP_temperature;BMP_pressure;BME280_temperature;BME280_humidity;BME280_pressure;Samples;Min_cycle;Max_cycle;Signal;HPM_P1;HPM_P2
2021/12/27 00:00:46;;;;;;;;;8.75;7.25;;;;;11.16;86.23;99433.47;5058721;28;46046;-76
2021/12/27 00:03:12;;;;;;;;;10.00;8.00;;;;;11.22;87.13;99437.78;5059068;28;45292;-77
2021/12/27 00:05:37;;;;;;;;;5.75;4.25;;;;;11.18;87.05;99421.16;5059204;28;45185;-77
2021/12/27 00:08:03;;;;;;;;;6.75;6.75;;;;;11.21;86.74;99426.38;5059058;28;45517;-77
2021/12/27 00:10:29;;;;;;;;;6.00;5.50;;;;;11.17;86.45;99408.88;5058779;28;46439;-77
2021/12/27 00:12:56;;;;;;;;;9.25;8.25;;;;;11.30;86.49;99436.75;5058481;28;45307;-76
2021/12/27 00:15:22;;;;;;;;;7.00;6.00;;;;;11.30;86.43;99428.84;5041025;28;45467;-77
2021/12/27 00:17:48;;;;;;;;;3.75;3.75;;;;;11.24;86.11;99414.88;5059321;28;45331;-76
2021/12/27 00:20:15;;;;;;;;;4.25;4.25;;;;;11.19;86.32;99398.28;5058636;28;47227;-76
2021/12/27 00:22:43;;;;;;;;;5.25;4.50;;;;;11.33;85.36;99431.44;5058665;28;45254;-77
2021/12/27 00:25:09;;;;;;;;;3.75;3.75;;;;;11.32;86.13;99421.78;5058217;28;45424;-76
2021/12/27 00:27:35;;;;;;;;;6.00;6.00;;;;;11.23;86.07;99406.13;5058503;28;45291;-76
2021/12/27 00:30:00;;;;;;;;;5.25;3.00;;;;;11.34;86.16;99422.63;5058590;28;45506;-76
2021/12/27 00:32:26;;;;;;;;;5.00;4.00;;;;;11.27;85.43;99404.31;5058074;28;45433;-76
2021/12/27 00:34:52;;;;;;;;;3.25;2.75;;;;;11.26;85.87;99394.63;5058763;28;45316;-76
2021/12/27 00:37:18;;;;;;;;;4.75;3.00;;;;;11.09;85.50;99365.97;5058716;28;45260;-76
2021/12/27 00:39:44;;;;;;;;;3.00;3.00;;;;;11.17;85.60;99373.69;5057920;28;46549;-76
2021/12/27 00:42:09;;;;;;;;;3.50;2.75;;;;;11.11;85.65;99366.78;5058236;28;45441;-76
2021/12/27 00:44:35;;;;;;;;;3.00;3.00;;;;;11.37;86.42;99411.16;5058481;28;45240;-76
2021/12/27 00:47:01;;;;;;;;;4.50;4.50;;;;;11.39;86.60;99412.00;5058093;28;45244;-76
2021/12/27 00:49:27;;;;;;;;;3.00;3.00;;;;;11.37;86.28;99416.44;5057921;28;46376;-76
2021/12/27 00:51:52;;;;;;;;;3.50;2.25;;;;;11.31;85.58;99396.31;5057863;28;45300;-76
2021/12/27 00:54:18;;;;;;;;;3.00;3.00;;;;;11.38;85.47;99405.00;5058024;28;45462;-76
2021/12/27 00:56:44;;;;;;;;;2.00;2.00;;;;;11.32;85.78;99402.44;5058270;28;45443;-76
2021/12/27 00:59:10;;;;;;;;;1.00;1.00;;;;;11.32;86.32;99411.22;5057687;28;45545;-75
2021/12/27 01:01:36;;;;;;;;;3.75;3.75;;;;;11.28;85.87;99392.88;5057523;28;45373;-77
2021/12/27 01:04:02;;;;;;;;;2.75;2.75;;;;;11.22;86.60;99379.78;5057855;28;45335;-77
2021/12/27 01:06:27;;;;;;;;;2.00;2.00;;;;;11.06;86.00;99358.94;5058086;28;45425;-76
2021/12/27 01:08:53;;;;;;;;;4.00;4.00;;;;;11.32;85.87;99400.69;5057431;28;46260;-75
2021/12/27 01:16:35;;;;;;;;;3.00;3.00;;;;;11.28;86.00;99382.31;5057923;28;45276;-75
2021/12/27 01:19:00;;;;;;;;;4.00;4.00;;;;;11.24;85.65;99377.97;5057327;28;46099;-76
2021/12/27 01:21:27;;;;;;;;;3.00;3.00;;;;;11.29;86.22;99390.22;5057755;28;45307;-77
2021/12/27 01:23:54;;;;;;;;;2.00;2.00;;;;;11.27;85.62;99383.22;5039540;28;45419;-76
2021/12/27 01:26:20;;;;;;;;;1.75;1.75;;;;;11.30;85.85;99391.94;5057702;28;45327;-76
2021/12/27 01:28:46;;;;;;;;;2.00;2.00;;;;;11.10;85.11;99351.88;5039118;28;47715;-76
2021/12/27 01:31:12;;;;;;;;;2.25;2.25;;;;;11.13;85.43;99354.44;5057288;28;45342;-76
2021/12/27 01:33:39;;;;;;;;;2.75;2.00;;;;;11.28;85.61;99375.28;5057885;28;45275;-76
2021/12/27 01:36:06;;;;;;;;;3.25;2.25;;;;;11.33;85.96;99373.41;5056023;28;45247;-76
2021/12/27 01:38:34;;;;;;;;;3.75;2.75;;;;;10.58;85.43;99244.72;5056406;28;46458;-76
2021/12/27 01:41:00;;;;;;;;;2.00;2.00;;;;;11.33;85.70;99373.41;5057088;28;45305;-76
2021/12/27 01:43:31;;;;;;;;;4.00;2.25;;;;;11.34;85.30;99367.25;5039432;28;45308;-76
2021/12/27 01:46:04;;;;;;;;;2.75;2.00;;;;;11.30;85.65;99357.66;5057695;28;45330;-76
2021/12/27 01:48:33;;;;;;;;;3.00;2.00;;;;;11.32;85.73;99358.50;5056832;28;46396;-76
2021/12/27 01:51:00;;;;;;;;;1.25;1.25;;;;;11.36;84.93;99359.34;5039197;28;45343;-75
2021/12/27 01:53:29;;;;;;;;;2.00;2.00;;;;;11.15;85.13;99326.28;5057441;28;45299;-76
2021/12/27 01:55:55;;;;;;;;;2.25;2.25;;;;;11.33;85.27;99347.06;5057009;28;45212;-76
2021/12/27 01:58:22;;;;;;;;;2.00;2.00;;;;;11.31;85.70;99340.94;5057134;28;45447;-76
2021/12/27 02:00:51;;;;;;;;;4.00;1.50;;;;;11.35;85.43;99352.28;5056797;28;45377;-76
2021/12/27 02:03:19;;;;;;;;;2.00;1.75;;;;;11.35;85.01;99354.94;5056873;28;45287;-76
2021/12/27 02:05:44;;;;;;;;;3.25;3.25;;;;;11.31;85.69;99346.22;5038925;28;45332;-77
2021/12/27 02:08:11;;;;;;;;;1.75;1.75;;;;;11.37;85.26;99347.88;5056846;28;47011;-76
2021/12/27 02:10:37;;;;;;;;;4.00;4.00;;;;;11.29;85.28;99331.34;5057212;28;45330;-76
2021/12/27 02:13:03;;;;;;;;;2.25;2.00;;;;;11.40;84.99;99350.47;5038887;28;45387;-76
2021/12/27 02:15:29;;;;;;;;;4.25;2.50;;;;;11.14;84.73;99304.34;5056889;28;45415;-76
2021/12/27 02:17:54;;;;;;;;;1.50;1.50;;;;;11.35;85.00;99352.28;5056980;28;45504;-76
2021/12/27 02:20:23;;;;;;;;;6.25;3.00;;;;;11.31;86.15;99337.44;5057082;28;45317;-76
2021/12/27 02:22:51;;;;;;;;;3.50;2.25;;;;;11.38;85.85;99352.25;5056922;28;45247;-76
2021/12/27 02:25:16;;;;;;;;;3.25;3.00;;;;;11.20;86.51;99324.47;5056611;28;45444;-76
2021/12/27 02:27:45;;;;;;;;;2.75;2.25;;;;;11.33;86.43;99346.19;5056349;28;46549;-76
2021/12/27 02:30:17;;;;;;;;;3.00;2.25;;;;;11.32;86.74;99345.31;5055192;28;45385;-76
2021/12/27 02:32:50;;;;;;;;;2.00;2.00;;;;;11.28;86.73;99338.38;5056833;28;45330;-76
2021/12/27 02:35:19;;;;;;;;;3.00;3.00;;;;;11.22;86.68;99327.94;5057036;28;45421;-76
2021/12/27 02:37:44;;;;;;;;;2.75;2.75;;;;;11.17;86.59;99313.09;5056367;28;45415;-77
2021/12/27 02:40:11;;;;;;;;;3.00;3.00;;;;;11.14;86.49;99317.53;5056137;28;45401;-76
2021/12/27 02:42:57;;;;;;;;;4.25;4.25;;;;;11.24;87.01;99335.81;5056891;28;45513;-76
2021/12/27 02:45:22;;;;;;;;;4.00;4.00;;;;;11.10;87.15;99318.47;5056642;28;45540;-77
2021/12/27 02:47:48;;;;;;;;;4.25;3.00;;;;;11.21;86.57;99334.09;5056139;28;45258;-76
2021/12/27 02:50:14;;;;;;;;;5.00;3.25;;;;;11.22;87.22;99332.34;5059666;28;45267;-76
2021/12/27 02:52:40;;;;;;;;;6.50;5.00;;;;;10.89;86.59;99273.16;5060376;28;45219;-76
2021/12/27 02:55:06;;;;;;;;;8.50;4.00;;;;;11.17;87.06;99321.88;5060243;28;45558;-76
2021/12/27 02:57:31;;;;;;;;;2.75;1.75;;;;;11.16;87.12;99306.94;5041827;28;47997;-76
2021/12/27 02:59:57;;;;;;;;;5.00;5.00;;;;;11.04;86.54;99291.34;5059769;28;45460;-77
2021/12/27 03:02:23;;;;;;;;;2.50;2.00;;;;;11.19;85.74;99309.53;5042191;28;45466;-76
2021/12/27 03:04:49;;;;;;;;;6.25;3.75;;;;;11.10;87.41;99288.63;5060069;28;45481;-77
2021/12/27 03:07:15;;;;;;;;;4.00;4.00;;;;;10.97;86.09;99269.50;5059513;28;46658;-75
2021/12/27 03:09:40;;;;;;;;;6.00;5.00;;;;;11.01;87.14;99278.25;5059845;28;45404;-76
2021/12/27 03:12:10;;;;;;;;;5.25;5.25;;;;;11.14;87.28;99306.97;5059969;28;45223;-77
2021/12/27 03:14:36;;;;;;;;;4.50;4.00;;;;;11.19;86.14;99316.59;5059938;28;45364;-76
2021/12/27 03:17:02;;;;;;;;;7.25;4.00;;;;;11.07;86.58;99300.09;5059527;28;45355;-76
2021/12/27 03:19:27;;;;;;;;;4.00;4.00;;;;;11.00;86.42;99282.66;5059384;28;45326;-75
2021/12/27 03:21:52;;;;;;;;;4.50;4.50;;;;;11.00;86.04;99282.66;5059743;28;45412;-76
2021/12/27 03:24:18;;;;;;;;;4.75;3.75;;;;;11.00;86.28;99279.16;5059350;28;45361;-76
2021/12/27 03:26:43;;;;;;;;;5.00;4.00;;;;;11.18;86.50;99299.03;5059370;28;46816;-76
2021/12/27 03:29:09;;;;;;;;;8.25;6.50;;;;;10.87;85.14;99240.72;5059734;28;45434;-76
2021/12/27 03:31:37;;;;;;;;;2.00;2.00;;;;;11.19;85.17;99298.13;5059767;28;45389;-76
2021/12/27 03:34:03;;;;;;;;;7.00;5.00;;;;;11.17;85.08;99290.25;5059677;28;45264;-76
2021/12/27 03:36:29;;;;;;;;;4.00;4.00;;;;;11.25;85.73;99292.72;5059150;28;46365;-76
2021/12/27 03:38:54;;;;;;;;;5.00;5.00;;;;;11.24;85.23;99297.13;5059317;28;45434;-76
2021/12/27 03:41:24;;;;;;;;;5.50;5.00;;;;;11.26;85.42;99286.56;5059700;28;45214;-76
2021/12/27 03:43:49;;;;;;;;;6.25;4.25;;;;;11.15;85.45;99270.94;5059630;28;45349;-75
2021/12/27 03:46:15;;;;;;;;;4.75;4.75;;;;;11.14;84.59;99271.84;5059123;28;47457;-76
2021/12/27 03:48:40;;;;;;;;;3.75;3.75;;;;;11.14;85.06;99261.31;5058892;28;45311;-76
2021/12/27 03:51:06;;;;;;;;;2.75;2.75;;;;;11.12;85.18;99253.44;5059140;28;45216;-75
2021/12/27 03:53:33;;;;;;;;;4.75;4.25;;;;;11.14;85.37;99253.41;5059180;28;45401;-76
2021/12/27 03:55:59;;;;;;;;;7.75;4.75;;;;;11.19;85.12;99256.84;5058662;28;45441;-76
2021/12/27 03:58:31;;;;;;;;;5.50;3.00;;;;;11.10;85.40;99241.19;5058791;28;45231;-76
2021/12/27 04:01:31;;;;;;;;;11.25;4.75;;;;;11.21;85.55;99267.34;5058263;28;45251;-75
2021/12/27 04:03:52;;;;;;;;;3.75;3.00;;;;;11.23;85.59;99257.63;5056583;28;45497;-76
2021/12/27 04:06:20;;;;;;;;;3.50;3.50;;;;;11.15;85.56;99241.94;5059184;28;45488;-75
2021/12/27 04:08:46;;;;;;;;;6.00;4.25;;;;;11.27;84.87;99259.31;5058710;28;45282;-77
2021/12/27 04:11:12;;;;;;;;;9.00;4.00;;;;;11.26;85.06;99266.38;5059008;28;45389;-76
2021/12/27 04:13:38;;;;;;;;;6.00;4.00;;;;;11.16;84.89;99256.00;5058825;28;45343;-76
2021/12/27 04:16:04;;;;;;;;;9.25;5.25;;;;;11.25;85.31;99263.72;5058447;28;45683;-75
2021/12/27 04:18:30;;;;;;;;;5.00;5.00;;;;;11.26;85.40;99262.84;5058657;28;45347;-76
2021/12/27 04:20:55;;;;;;;;;4.50;3.75;;;;;11.19;84.82;99242.78;5058998;28;45358;-76
2021/12/27 04:23:21;;;;;;;;;5.50;5.00;;;;;11.25;85.42;99259.31;5058885;28;45154;-75
2021/12/27 04:25:46;;;;;;;;;4.00;3.50;;;;;10.85;85.17;99193.34;5058336;28;47259;-76
2021/12/27 04:28:13;;;;;;;;;5.00;4.00;;;;;11.16;85.19;99251.59;5040538;28;45668;-75
2021/12/27 04:30:39;;;;;;;;;6.25;4.50;;;;;11.23;85.26;99247.94;5058784;28;45296;-75
2021/12/27 04:33:05;;;;;;;;;6.75;6.50;;;;;11.21;85.08;99254.16;5058548;28;45254;-75
2021/12/27 04:35:31;;;;;;;;;10.00;5.75;;;;;10.57;85.23;99141.16;5058124;28;46429;-76
2021/12/27 04:37:57;;;;;;;;;7.00;4.50;;;;;11.20;85.68;99242.75;5058127;28;45344;-76
2021/12/27 04:40:26;;;;;;;;;8.50;5.00;;;;;11.22;84.73;99254.13;5058160;28;45338;-76
2021/12/27 04:42:57;;;;;;;;;9.75;8.00;;;;;11.09;84.89;99235.06;5058671;28;45459;-75
2021/12/27 04:45:22;;;;;;;;;9.00;7.75;;;;;11.24;85.28;99256.72;5058430;28;46420;-76
2021/12/27 04:47:48;;;;;;;;;7.00;4.00;;;;;11.22;85.14;99254.13;5057750;28;45386;-74
2021/12/27 04:50:14;;;;;;;;;9.00;3.00;;;;;11.23;84.61;99255.84;5058660;28;45299;-75
2021/12/27 04:52:40;;;;;;;;;8.75;5.00;;;;;11.26;84.80;99260.19;5058666;28;45303;-75
2021/12/27 04:55:05;;;;;;;;;7.50;5.25;;;;;11.25;84.10;99259.31;5058339;28;46607;-76
2021/12/27 04:57:31;;;;;;;;;6.75;4.50;;;;;11.22;84.45;99254.13;5058242;28;45863;-75
2021/12/27 04:59:56;;;;;;;;;9.25;8.25;;;;;11.26;84.96;99260.19;5058224;28;45287;-75
2021/12/27 05:02:22;;;;;;;;;8.00;5.25;;;;;11.26;84.88;99266.38;5058432;28;45326;-76
2021/12/27 05:04:47;;;;;;;;;7.75;4.50;;;;;11.21;84.25;99255.03;5057928;28;45537;-75
2021/12/27 05:07:12;;;;;;;;;8.25;7.00;;;;;11.32;84.80;99274.13;5057709;28;45493;-75
2021/12/27 05:09:38;;;;;;;;;11.25;5.00;;;;;10.91;84.24;99211.69;5058232;28;45227;-75
2021/12/27 05:12:04;;;;;;;;;6.00;5.00;;;;;11.06;83.58;99228.94;5056993;28;45343;-76
2021/12/27 05:14:29;;;;;;;;;7.75;7.75;;;;;11.21;84.58;99264.72;5057686;28;46048;-76
2021/12/27 05:16:55;;;;;;;;;4.75;3.25;;;;;11.22;84.18;99259.41;5056481;28;45386;-76
2021/12/27 05:19:20;;;;;;;;;15.00;7.00;;;;;11.21;84.19;99278.75;5039631;28;45332;-77
2021/12/27 05:21:46;;;;;;;;;9.50;5.25;;;;;11.23;84.47;99278.72;5058115;28;45366;-75
2021/12/27 05:24:12;;;;;;;;;7.50;4.75;;;;;11.28;84.76;99279.50;5058009;28;46643;-75
2021/12/27 05:26:38;;;;;;;;;7.75;7.75;;;;;11.16;84.10;99251.59;5057965;28;45299;-76
2021/12/27 05:29:04;;;;;;;;;10.50;7.75;;;;;11.26;83.85;99258.47;5057651;28;45344;-76
2021/12/27 05:31:30;;;;;;;;;4.50;4.50;;;;;11.31;83.51;99272.41;5057912;28;45395;-76
2021/12/27 05:33:55;;;;;;;;;5.25;4.00;;;;;11.30;83.78;99267.16;5057649;28;46345;-76
2021/12/27 05:36:20;;;;;;;;;4.50;4.25;;;;;11.25;84.53;99264.59;5057462;28;45377;-76
2021/12/27 05:38:46;;;;;;;;;5.75;5.00;;;;;11.08;84.28;99241.22;5057966;28;45212;-75
2021/12/27 05:41:11;;;;;;;;;4.00;3.00;;;;;11.14;84.16;99246.34;5058098;28;45371;-76
2021/12/27 05:43:37;;;;;;;;;8.50;8.50;;;;;11.09;84.77;99231.56;5039675;28;45330;-77
2021/12/27 05:46:02;;;;;;;;;7.50;5.00;;;;;11.19;85.01;99232.25;5057538;28;45385;-76
2021/12/27 05:48:28;;;;;;;;;11.50;6.00;;;;;11.18;84.42;99233.16;5057465;28;45411;-76
2021/12/27 05:50:53;;;;;;;;;8.50;7.00;;;;;11.18;84.44;99217.34;5057526;28;45330;-76
2021/12/27 05:53:20;;;;;;;;;10.25;7.00;;;;;11.10;83.67;99205.16;5057373;28;45432;-77
2021/12/27 05:55:45;;;;;;;;;11.50;9.50;;;;;11.20;84.84;99212.88;5057313;28;45211;-76
2021/12/27 05:58:11;;;;;;;;;8.00;8.00;;;;;11.22;84.29;99204.03;5057019;28;45426;-76
2021/12/27 06:00:37;;;;;;;;;7.75;7.75;;;;;11.09;83.83;99179.72;5039395;28;45574;-76
2021/12/27 06:03:03;;;;;;;;;7.75;7.75;;;;;11.02;84.56;99170.19;5057107;28;45386;-76
2021/12/27 06:05:28;;;;;;;;;17.00;11.50;;;;;11.11;84.80;99183.19;5056986;28;45381;-76
2021/12/27 06:07:54;;;;;;;;;12.50;10.00;;;;;10.99;84.50;99172.88;5056966;28;45454;-75
2021/12/27 06:10:21;;;;;;;;;8.25;7.75;;;;;10.88;84.92;99171.34;5057430;28;45299;-76
2021/12/27 06:12:47;;;;;;;;;8.00;6.00;;;;;10.71;85.82;99153.22;5057116;28;46598;-76
2021/12/27 06:15:13;;;;;;;;;9.50;5.50;;;;;10.65;86.24;99155.97;5057120;28;45255;-76
2021/12/27 06:17:39;;;;;;;;;8.50;7.50;;;;;10.53;86.78;99134.25;5057163;28;45247;-75
2021/12/27 06:20:09;;;;;;;;;9.50;8.00;;;;;10.49;87.03;99129.03;5057002;28;45448;-76
2021/12/27 06:22:36;;;;;;;;;10.00;8.25;;;;;10.61;86.28;99125.31;5056930;28;46807;-75
2021/12/27 06:25:03;;;;;;;;;10.00;7.00;;;;;10.57;86.66;99113.97;5059575;28;45273;-75
2021/12/27 06:27:31;;;;;;;;;5.75;5.75;;;;;10.51;86.57;99085.97;5060633;28;45252;-76
2021/12/27 06:29:57;;;;;;;;;10.00;10.00;;;;;10.55;86.30;99084.19;5060844;28;45487;-76
2021/12/27 06:32:22;;;;;;;;;8.50;8.00;;;;;10.43;85.98;99037.91;5060587;28;45533;-76
2021/12/27 06:34:47;;;;;;;;;9.75;9.75;;;;;10.74;85.29;99082.91;5060686;28;45275;-75
2021/12/27 06:37:13;;;;;;;;;10.25;8.50;;;;;10.54;85.76;99070.16;5060337;28;45432;-76
2021/12/27 06:39:38;;;;;;;;;10.00;7.00;;;;;10.52;86.24;99063.19;5060486;28;45391;-76
2021/12/27 06:42:05;;;;;;;;;4.75;3.00;;;;;10.35;85.38;99029.28;5059978;28;46214;-75
2021/12/27 06:44:31;;;;;;;;;9.00;8.00;;;;;10.34;85.63;99035.44;5060144;28;45224;-76
2021/12/27 06:46:59;;;;;;;;;11.75;9.25;;;;;10.41;86.35;99039.66;5060051;28;45691;-76
2021/12/27 06:49:28;;;;;;;;;8.50;6.00;;;;;10.31;85.92;99027.59;5060227;28;45339;-76
2021/12/27 06:51:54;;;;;;;;;9.00;7.50;;;;;10.33;85.68;99038.97;5059925;28;45423;-75
2021/12/27 06:54:21;;;;;;;;;3.50;3.00;;;;;10.38;86.01;99058.16;5060044;28;45442;-75
2021/12/27 06:56:46;;;;;;;;;5.00;5.00;;;;;10.28;85.30;99022.38;5060297;28;45291;-76
2021/12/27 06:59:13;;;;;;;;;7.50;7.50;;;;;10.33;85.78;99041.59;5060397;28;45215;-75
2021/12/27 07:01:38;;;;;;;;;7.00;7.00;;;;;10.39;85.75;99032.72;5059752;28;46295;-75
2021/12/27 07:04:04;;;;;;;;;4.25;4.25;;;;;10.44;85.03;99060.69;5059966;28;45253;-75
2021/12/27 07:06:29;;;;;;;;;6.00;6.00;;;;;10.41;85.55;99051.97;5059778;28;45226;-75
2021/12/27 07:08:54;;;;;;;;;7.25;7.00;;;;;10.26;84.42;99037.34;5059962;28;45173;-75
2021/12/27 07:11:20;;;;;;;;;8.50;5.50;;;;;10.19;85.61;99035.69;5059618;28;45366;-75
2021/12/27 07:13:45;;;;;;;;;8.00;8.00;;;;;10.14;85.62;99041.00;5059722;28;45211;-75
2021/12/27 07:16:10;;;;;;;;;6.75;6.75;;;;;10.09;85.57;99044.66;5060086;28;45245;-75
2021/12/27 07:18:36;;;;;;;;;6.50;6.50;;;;;10.16;86.42;99059.44;5060085;28;45397;-75
2021/12/27 07:21:02;;;;;;;;;5.75;5.75;;;;;10.13;85.59;99049.81;5059507;28;46127;-76
2021/12/27 07:23:27;;;;;;;;;5.25;5.25;;;;;9.87;85.40;99007.34;5059343;28;45415;-75
2021/12/27 07:25:52;;;;;;;;;10.00;9.00;;;;;10.07;86.21;99036.78;5059457;28;45349;-74
2021/12/27 07:28:18;;;;;;;;;7.00;5.25;;;;;10.13;85.08;99031.38;5059712;28;45383;-75
2021/12/27 07:30:44;;;;;;;;;7.25;5.50;;;;;10.20;85.97;99035.66;5059481;28;45929;-76
2021/12/27 07:33:09;;;;;;;;;3.00;3.00;;;;;10.18;85.43;99029.56;5059400;28;45506;-75
2021/12/27 07:35:35;;;;;;;;;6.75;6.75;;;;;10.25;85.79;99049.63;5058628;28;45310;-75
2021/12/27 07:38:01;;;;;;;;;4.50;4.50;;;;;10.25;84.67;99056.66;5059685;28;45269;-75
2021/12/27 07:40:27;;;;;;;;;10.00;9.50;;;;;10.30;85.34;99077.63;5059423;28;46710;-76
2021/12/27 07:42:52;;;;;;;;;4.00;4.00;;;;;10.32;84.79;99075.81;5060864;28;45347;-76
2021/12/27 07:45:18;;;;;;;;;10.25;7.00;;;;;10.27;84.57;99063.63;5061929;28;45706;-76
2021/12/27 07:47:43;;;;;;;;;6.00;5.50;;;;;10.17;84.83;99040.13;5060051;28;45426;-76
2021/12/27 07:50:09;;;;;;;;;4.75;3.50;;;;;10.13;84.80;99039.28;5059440;28;46268;-76
2021/12/27 07:52:34;;;;;;;;;3.75;3.75;;;;;10.21;84.81;99057.56;5041363;28;45271;-76
2021/12/27 07:55:00;;;;;;;;;7.75;5.00;;;;;10.16;85.41;99046.28;5060898;28;45261;-76
2021/12/27 07:57:25;;;;;;;;;7.25;4.50;;;;;9.88;85.04;99016.97;5061047;28;45358;-76
2021/12/27 07:59:51;;;;;;;;;5.00;5.00;;;;;9.89;84.85;99021.31;5060208;28;46003;-77
2021/12/27 08:02:18;;;;;;;;;3.75;3.75;;;;;9.94;85.29;99038.75;5059820;28;45280;-76
2021/12/27 08:04:43;;;;;;;;;4.25;2.50;;;;;9.85;84.39;99002.06;5059659;28;45405;-77
2021/12/27 08:07:09;;;;;;;;;3.00;3.00;;;;;10.18;85.55;99066.41;5059550;28;45440;-77
2021/12/27 08:09:35;;;;;;;;;3.25;3.25;;;;;10.09;84.08;99042.88;5041098;28;47412;-77
2021/12/27 08:12:01;;;;;;;;;5.25;3.25;;;;;10.22;84.61;99060.19;5060003;28;45411;-77
2021/12/27 08:14:26;;;;;;;;;6.75;6.00;;;;;10.20;84.19;99056.69;5059308;28;45251;-77
2021/12/27 08:16:52;;;;;;;;;4.50;3.25;;;;;10.07;84.16;99038.53;5059115;28;45239;-77
2021/12/27 08:19:17;;;;;;;;;3.00;2.00;;;;;10.04;84.24;99039.44;5058885;28;45229;-77
2021/12/27 08:21:43;;;;;;;;;2.25;2.25;;;;;10.17;83.97;99046.25;5057670;28;45264;-77
2021/12/27 08:24:09;;;;;;;;;6.00;4.00;;;;;9.88;83.52;98981.00;5058824;28;45280;-77
2021/12/27 08:26:35;;;;;;;;;5.00;4.25;;;;;10.25;83.31;99028.59;5059332;28;45329;-77
2021/12/27 08:29:03;;;;;;;;;3.50;2.50;;;;;10.28;83.93;99032.91;5058516;28;47093;-77
2021/12/27 08:31:29;;;;;;;;;4.25;4.25;;;;;10.21;83.84;99024.22;5058348;28;45394;-77
2021/12/27 08:33:54;;;;;;;;;4.00;4.00;;;;;10.05;83.53;98993.84;5058819;28;45263;-76
2021/12/27 08:36:20;;;;;;;;;4.75;3.75;;;;;10.17;83.36;99025.19;5040554;28;45255;-77
2021/12/27 08:38:48;;;;;;;;;4.00;3.25;;;;;10.12;83.60;99013.88;5058217;28;45477;-77
2021/12/27 08:41:14;;;;;;;;;4.00;4.00;;;;;10.15;83.86;99032.25;5039909;28;45280;-77
2021/12/27 08:43:40;;;;;;;;;3.50;3.00;;;;;10.15;83.58;99019.09;5058540;28;45451;-78
2021/12/27 08:46:06;;;;;;;;;6.25;4.25;;;;;10.25;83.33;99036.47;5058538;28;45375;-77
2021/12/27 08:48:31;;;;;;;;;4.25;4.25;;;;;10.10;83.10;99018.28;5057940;28;46492;-77
2021/12/27 08:50:57;;;;;;;;;6.50;4.50;;;;;9.97;84.02;98988.72;5040003;28;45342;-77
2021/12/27 08:53:22;;;;;;;;;4.75;3.00;;;;;10.06;83.45;98994.72;5040315;28;45366;-76
2021/12/27 08:55:48;;;;;;;;;6.50;5.50;;;;;10.22;83.80;99010.19;5058283;28;45445;-76
2021/12/27 08:58:13;;;;;;;;;3.25;3.25;;;;;10.30;83.13;99009.19;5058216;28;45350;-76
2021/12/27 09:00:39;;;;;;;;;4.00;4.00;;;;;10.38;83.57;99002.88;5057936;28;45437;-76
2021/12/27 09:03:04;;;;;;;;;5.00;4.50;;;;;10.49;82.77;99005.31;5058222;28;45382;-75
2021/12/27 09:05:30;;;;;;;;;4.00;4.00;;;;;10.28;82.31;98964.50;5058280;28;45310;-75
2021/12/27 09:07:55;;;;;;;;;4.00;4.00;;;;;10.40;82.57;98987.06;5057699;28;46661;-75
2021/12/27 09:10:20;;;;;;;;;3.75;3.75;;;;;10.38;82.70;98970.44;5057789;28;45263;-76
2021/12/27 09:12:46;;;;;;;;;4.00;4.00;;;;;10.60;82.97;99007.72;5057792;28;45430;-76
2021/12/27 09:15:14;;;;;;;;;3.25;3.25;;;;;10.31;81.78;98955.66;5058244;28;45513;-76
2021/12/27 09:17:39;;;;;;;;;6.75;3.00;;;;;10.30;82.35;98989.00;5039426;28;47250;-75
2021/12/27 09:20:05;;;;;;;;;3.25;3.25;;;;;10.27;83.03;99013.63;5057566;28;45242;-76
2021/12/27 09:22:31;;;;;;;;;3.25;2.75;;;;;10.23;83.69;99006.66;5057895;28;45247;-76
2021/12/27 09:24:57;;;;;;;;;7.00;4.50;;;;;10.22;83.65;99006.69;5039517;28;45559;-76
2021/12/27 09:27:22;;;;;;;;;3.00;3.00;;;;;10.23;83.73;98992.66;5057458;28;45327;-76
2021/12/27 09:29:49;;;;;;;;;4.00;4.00;;;;;10.21;83.35;98999.69;5057869;28;45453;-75
2021/12/27 09:32:15;;;;;;;;;7.25;4.75;;;;;10.25;83.52;99014.56;5057643;28;45492;-76
2021/12/27 09:34:40;;;;;;;;;3.00;3.00;;;;;10.32;83.27;99002.13;5057626;28;45313;-75
2021/12/27 09:37:07;;;;;;;;;3.50;2.00;;;;;10.34;82.78;98992.47;5057412;28;45366;-76
2021/12/27 09:39:33;;;;;;;;;7.50;4.00;;;;;10.37;83.64;98984.50;5039237;28;45270;-76
2021/12/27 09:41:59;;;;;;;;;8.00;5.00;;;;;10.36;83.24;98981.00;5057272;28;45150;-76
2021/12/27 09:44:25;;;;;;;;;2.25;2.25;;;;;10.48;82.95;98985.16;5039427;28;45554;-76
2021/12/27 09:46:51;;;;;;;;;3.25;3.25;;;;;10.49;82.53;98984.25;5056982;28;46877;-75
2021/12/27 09:49:19;;;;;;;;;2.25;2.25;;;;;10.39;83.01;98983.56;5057127;28;45243;-75
2021/12/27 09:51:45;;;;;;;;;4.00;4.00;;;;;10.44;83.44;98967.69;5056910;28;45429;-75
2021/12/27 09:54:11;;;;;;;;;5.25;5.25;;;;;10.53;83.01;98978.91;5056957;28;45307;-76
2021/12/27 09:56:37;;;;;;;;;4.75;4.75;;;;;10.56;83.41;98972.69;5056939;28;45528;-76
2021/12/27 09:59:04;;;;;;;;;3.00;3.00;;;;;10.48;81.88;98962.31;5056498;28;45223;-75
2021/12/27 10:01:30;;;;;;;;;6.00;3.00;;;;;10.45;83.02;98954.50;5056871;28;45261;-76
2021/12/27 10:03:57;;;;;;;;;3.00;1.25;;;;;10.45;82.78;98972.06;5057322;28;45239;-75
2021/12/27 10:06:24;;;;;;;;;4.50;3.50;;;;;10.32;82.14;98950.34;5057126;28;46489;-76
2021/12/27 10:08:57;;;;;;;;;3.00;3.00;;;;;10.40;82.78;98966.00;5057010;28;45338;-76
2021/12/27 10:11:29;;;;;;;;;3.00;3.00;;;;;10.41;83.12;98973.84;5056779;28;45517;-75
2021/12/27 10:14:20;;;;;;;;;2.00;2.00;;;;;10.47;83.43;98989.53;5057013;28;45338;-76
2021/12/27 10:16:54;;;;;;;;;3.00;3.00;;;;;10.48;83.78;98978.09;5056952;28;45632;-76
2021/12/27 10:19:22;;;;;;;;;4.75;4.00;;;;;10.33;83.61;98962.66;5056730;28;45453;-75
2021/12/27 10:21:51;;;;;;;;;3.50;3.50;;;;;10.41;83.33;98975.63;5056760;28;45303;-75
2021/12/27 10:24:19;;;;;;;;;8.75;4.50;;;;;10.47;83.67;98988.69;5057014;28;45268;-75
2021/12/27 10:26:49;;;;;;;;;4.00;4.00;;;;;10.35;83.78;98965.25;5038420;28;46963;-75
2021/12/27 10:29:22;;;;;;;;;3.00;3.00;;;;;10.16;83.82;98927.88;5056969;28;45236;-75
2021/12/27 10:32:24;;;;;;;;;7.00;6.25;;;;;10.45;85.02;98969.41;5055276;28;45311;-75
2021/12/27 10:34:52;;;;;;;;;4.50;4.00;;;;;10.05;84.40;98911.41;4939320;28;45462;-76
2021/12/27 10:37:25;;;;;;;;;4.50;4.50;;;;;10.22;84.36;98944.41;4955331;28;45393;-75
2021/12/27 10:40:26;;;;;;;;;6.00;4.00;;;;;10.04;84.94;98918.44;4955489;28;45517;-75
2021/12/27 10:42:53;;;;;;;;;3.00;2.50;;;;;9.55;84.86;98852.78;4897779;29;45314;-75
2021/12/27 10:45:21;;;;;;;;;4.75;4.75;;;;;10.24;85.02;98970.72;4898315;29;45435;-76
2021/12/27 10:47:53;;;;;;;;;7.75;6.50;;;;;9.77;84.54;98882.13;4897752;29;45385;-74
2021/12/27 10:50:24;;;;;;;;;4.00;3.00;;;;;10.26;84.74;98972.41;4897851;29;45418;-76
2021/12/27 10:52:51;;;;;;;;;7.50;5.50;;;;;10.27;85.52;98966.25;4898012;29;45313;-76
2021/12/27 10:55:20;;;;;;;;;4.75;4.75;;;;;10.30;85.26;98967.94;4897892;29;45476;-76
2021/12/27 10:57:46;;;;;;;;;7.75;7.00;;;;;10.20;84.60;98961.09;4897630;29;47483;-76
2021/12/27 11:00:24;;;;;;;;;6.00;6.00;;;;;10.09;85.17;98931.50;4898074;29;45442;-76
2021/12/27 11:02:51;;;;;;;;;8.00;7.00;;;;;10.23;84.84;98967.19;4897811;29;45357;-75
2021/12/27 11:05:21;;;;;;;;;5.00;5.00;;;;;10.31;84.77;98958.28;4897942;29;45572;-76
2021/12/27 11:07:46;;;;;;;;;7.00;6.50;;;;;10.36;85.25;98978.38;4902021;28;45465;-75
2021/12/27 11:10:12;;;;;;;;;4.75;4.75;;;;;10.35;85.53;98970.50;4955439;28;45468;-75
2021/12/27 11:12:38;;;;;;;;;3.75;3.75;;;;;10.45;85.02;98980.81;4958928;28;45379;-75
2021/12/27 11:15:09;;;;;;;;;6.25;4.50;;;;;10.33;84.98;98970.53;4959001;28;45613;-75
2021/12/27 11:17:35;;;;;;;;;5.25;5.25;;;;;10.40;84.94;98994.94;5040155;28;46225;-76
2021/12/27 11:20:01;;;;;;;;;5.75;5.00;;;;;10.43;85.62;98993.16;5059572;28;45357;-77
2021/12/27 11:22:27;;;;;;;;;8.00;8.00;;;;;10.14;86.41;98946.28;5059824;28;45399;-76
2021/12/27 11:24:53;;;;;;;;;5.50;5.50;;;;;10.40;85.29;98979.16;5059785;28;45284;-76
2021/12/27 11:27:18;;;;;;;;;4.00;3.75;;;;;10.33;85.30;98974.91;5059443;28;47020;-76
2021/12/27 11:30:07;;;;;;;;;7.00;4.50;;;;;10.48;85.50;98996.53;5059631;28;45366;-77
2021/12/27 11:32:32;;;;;;;;;8.25;8.00;;;;;10.46;85.61;98986.94;5059636;28;45898;-76
2021/12/27 11:35:03;;;;;;;;;7.75;7.75;;;;;10.50;85.24;98988.59;5059559;28;45358;-76
2021/12/27 11:37:42;;;;;;;;;3.75;3.00;;;;;10.45;84.70;98978.19;5058998;28;46491;-76